createdAt,value
2023-03-03T00:01:19.432Z,78.19
2023-03-03T00:03:47.782Z,76.85
2023-03-03T00:06:15.787Z,76.40
2023-03-03T00:08:43.852Z,77.35
2023-03-03T00:11:12.372Z,77.97
2023-03-03T00:13:49.311Z,80.49
2023-03-03T00:16:23.584Z,84.12
2023-03-03T00:18:51.844Z,82.76
2023-03-03T00:21:29.582Z,81.16
2023-03-03T00:24:16.533Z,77.13
2023-03-03T00:26:51.748Z,76.12
2023-03-03T00:29:37.286Z,75.18
2023-03-03T00:32:15.506Z,76.94
2023-03-03T00:34:44.125Z,75.64
2023-03-03T00:37:34.893Z,76.25
2023-03-03T00:40:15.922Z,78.71
2023-03-03T00:42:49.798Z,76.66
2023-03-03T00:45:29.779Z,76.17
2023-03-03T00:47:58.968Z,76.56
2023-03-03T00:50:30.117Z,77.89
2023-03-03T00:53:19.362Z,77.65
2023-03-03T00:55:49.862Z,78.16
2023-03-03T00:58:22.086Z,77.66
2023-03-03T01:00:54.742Z,76.61
2023-03-03T01:03:26.665Z,76.39
2023-03-03T01:05:55.628Z,76.89
2023-03-03T01:08:24.395Z,75.87
2023-03-03T01:10:57.941Z,76.41
2023-03-03T01:13:29.102Z,76.79
2023-03-03T01:15:57.186Z,78.17
2023-03-03T01:18:25.440Z,78.67
2023-03-03T01:20:53.765Z,78.07
2023-03-03T01:23:21.951Z,77.79
2023-03-03T01:25:49.934Z,78.85
2023-03-03T01:28:18.277Z,79.08
2023-03-03T01:30:46.576Z,80.04
2023-03-03T01:33:14.561Z,79.24
2023-03-03T01:35:46.877Z,80.51
2023-03-03T01:38:15.636Z,80.13
2023-03-03T01:40:44.012Z,79.93
2023-03-03T01:43:16.233Z,80.67
2023-03-03T01:46:07.763Z,81.57
2023-03-03T01:48:42.487Z,80.64
2023-03-03T01:51:24.370Z,81.46
2023-03-03T01:53:55.706Z,79.55
2023-03-03T01:56:24.892Z,79.85
2023-03-03T01:58:53.016Z,79.87
2023-03-03T02:01:23.860Z,78.71
2023-03-03T02:03:53.602Z,79.84
2023-03-03T02:06:29.271Z,78.43
2023-03-03T02:09:19.771Z,77.29
2023-03-03T02:11:49.704Z,78.15
2023-03-03T02:14:17.766Z,78.93
2023-03-03T02:16:45.967Z,78.69
2023-03-03T02:19:39.596Z,78.77
2023-03-03T02:22:07.911Z,79.18
2023-03-03T02:24:45.550Z,80.23
2023-03-03T02:27:14.929Z,79.52
2023-03-03T02:29:43.469Z,79.47
2023-03-03T02:32:11.712Z,79.90
2023-03-03T02:34:50.508Z,83.44
2023-03-03T02:37:19.810Z,81.11
2023-03-03T02:39:47.872Z,79.94
2023-03-03T02:42:20.744Z,82.84
2023-03-03T02:44:49.739Z,85.01
2023-03-03T02:47:17.677Z,84.06
2023-03-03T02:49:45.795Z,85.42
2023-03-03T02:52:15.145Z,83.02
2023-03-03T02:54:44.482Z,81.92
2023-03-03T02:57:12.732Z,81.46
2023-03-03T02:59:41.048Z,81.06
2023-03-03T03:02:09.398Z,78.72
2023-03-03T03:04:37.396Z,78.15
2023-03-03T03:07:05.838Z,78.10
2023-03-03T03:09:34.252Z,78.98
2023-03-03T03:12:02.784Z,78.70
2023-03-03T03:14:31.879Z,78.64
2023-03-03T03:17:00.072Z,79.17
2023-03-03T03:19:28.620Z,81.70
2023-03-03T03:21:58.820Z,81.42
2023-03-03T03:24:27.410Z,80.71
2023-03-03T03:26:55.758Z,83.60
2023-03-03T03:29:24.345Z,80.61
2023-03-03T03:31:52.326Z,79.08
2023-03-03T03:34:20.403Z,79.38
2023-03-03T03:36:49.952Z,82.97
2023-03-03T03:39:18.062Z,84.44
2023-03-03T03:41:46.645Z,82.55
2023-03-03T03:44:15.034Z,80.31
2023-03-03T03:46:43.650Z,79.13
2023-03-03T03:49:11.852Z,83.08
2023-03-03T03:51:42.232Z,82.42
2023-03-03T03:54:11.160Z,82.76
2023-03-03T03:56:39.661Z,81.40
2023-03-03T03:59:09.199Z,81.42
2023-03-03T04:01:37.588Z,78.06
2023-03-03T04:04:06.206Z,78.43
2023-03-03T04:06:35.138Z,77.57
2023-03-03T04:09:04.220Z,80.53
2023-03-03T04:11:32.828Z,77.02
2023-03-03T04:14:00.818Z,75.98
2023-03-03T04:16:28.914Z,78.16
2023-03-03T04:18:57.363Z,79.41
2023-03-03T04:21:25.515Z,78.60
2023-03-03T04:23:54.375Z,77.45
2023-03-03T04:26:22.864Z,78.12
2023-03-03T04:28:50.924Z,79.42
2023-03-03T04:31:20.798Z,78.48
2023-03-03T04:33:49.375Z,79.96
2023-03-03T04:36:18.076Z,78.96
2023-03-03T04:38:46.284Z,80.08
2023-03-03T04:41:14.751Z,81.76
2023-03-03T04:43:43.085Z,84.05
2023-03-03T04:46:12.539Z,83.03
2023-03-03T04:48:40.965Z,79.53
2023-03-03T04:51:08.934Z,79.09
2023-03-03T04:53:38.555Z,80.26
2023-03-03T04:56:07.673Z,80.97
2023-03-03T04:58:35.755Z,80.03
2023-03-03T05:01:04.082Z,79.36
2023-03-03T05:03:33.169Z,79.61
2023-03-03T05:06:01.234Z,78.26
2023-03-03T05:08:29.172Z,79.88
2023-03-03T05:10:59.776Z,78.61
2023-03-03T05:13:27.774Z,77.45
2023-03-03T05:15:56.639Z,77.90
2023-03-03T05:18:25.763Z,78.29
2023-03-03T05:20:54.452Z,77.52
2023-03-03T05:23:22.551Z,80.10
2023-03-03T05:25:51.454Z,78.18
2023-03-03T05:28:19.440Z,79.10
2023-03-03T05:30:47.614Z,80.91
2023-03-03T05:33:17.220Z,84.05
2023-03-03T05:35:45.765Z,81.08
2023-03-03T05:38:13.753Z,80.73
2023-03-03T05:40:42.084Z,79.64
2023-03-03T05:43:10.182Z,81.68
2023-03-03T05:45:38.070Z,80.47
2023-03-03T05:48:06.400Z,80.47
2023-03-03T05:50:34.363Z,83.52
2023-03-03T05:53:02.352Z,86.61
2023-03-03T05:55:31.054Z,87.35
2023-03-03T05:57:59.032Z,85.61
2023-03-03T06:00:27.093Z,87.48
2023-03-03T06:02:55.571Z,88.11
2023-03-03T06:05:23.557Z,86.51
2023-03-03T06:07:51.671Z,84.23
2023-03-03T06:10:20.228Z,85.08
2023-03-03T06:12:48.973Z,86.77
2023-03-03T06:15:17.028Z,90.18
2023-03-03T06:17:45.736Z,89.27
2023-03-03T06:20:13.761Z,87.92
2023-03-03T06:22:41.887Z,86.54
2023-03-03T06:25:10.259Z,87.19
2023-03-03T06:27:38.216Z,89.02
2023-03-03T06:30:07.025Z,89.99
2023-03-03T06:32:35.399Z,88.18
2023-03-03T06:35:03.534Z,89.28
2023-03-03T06:37:31.614Z,88.31
2023-03-03T06:40:00.116Z,90.13
2023-03-03T06:42:28.201Z,87.97
2023-03-03T06:44:56.211Z,88.08
2023-03-03T06:47:24.590Z,87.32
2023-03-03T06:49:52.560Z,85.12
2023-03-03T06:52:25.672Z,82.26
2023-03-03T06:54:59.380Z,81.29
2023-03-03T06:57:29.952Z,80.85
2023-03-03T07:00:17.153Z,80.13
2023-03-03T07:02:45.158Z,78.66
2023-03-03T07:05:16.632Z,79.15
2023-03-03T07:07:45.263Z,79.67
2023-03-03T07:10:21.828Z,77.40
2023-03-03T07:12:50.383Z,77.61
2023-03-03T07:15:35.166Z,75.00
2023-03-03T07:18:05.351Z,75.95
2023-03-03T07:20:36.989Z,76.32
2023-03-03T07:23:27.492Z,75.09
2023-03-03T07:25:55.878Z,74.58
2023-03-03T07:28:29.411Z,75.04
2023-03-03T07:30:58.322Z,74.73
2023-03-03T07:33:34.748Z,73.03
2023-03-03T07:36:04.281Z,74.46
2023-03-03T07:38:38.016Z,77.25
2023-03-03T07:41:13.158Z,73.39
2023-03-03T07:44:17.553Z,73.09
2023-03-03T07:46:48.464Z,74.90
2023-03-03T07:49:38.287Z,71.92
2023-03-03T07:52:26.950Z,74.26
2023-03-03T07:54:57.867Z,74.16
2023-03-03T07:57:28.911Z,73.55
2023-03-03T08:00:16.789Z,71.72
2023-03-03T08:02:48.242Z,71.44
2023-03-03T08:05:28.311Z,73.29
2023-03-03T08:08:09.382Z,70.78
2023-03-03T08:10:43.819Z,71.06
2023-03-03T08:13:22.972Z,68.38
2023-03-03T08:16:05.359Z,73.08
2023-03-03T08:18:36.850Z,70.83
2023-03-03T08:21:16.486Z,71.26
2023-03-03T08:23:45.049Z,68.34
2023-03-03T08:26:14.283Z,69.11
2023-03-03T08:28:42.292Z,71.18
2023-03-03T08:31:20.196Z,71.82
2023-03-03T08:33:53.482Z,70.37
2023-03-03T08:36:22.079Z,71.81
2023-03-03T08:38:50.124Z,72.15
2023-03-03T08:41:18.140Z,72.46
2023-03-03T08:43:46.549Z,71.54
2023-03-03T08:46:14.719Z,72.91
2023-03-03T08:48:42.696Z,75.89
2023-03-03T08:51:11.046Z,74.09
2023-03-03T08:53:38.996Z,71.18
2023-03-03T08:56:07.296Z,70.28
2023-03-03T08:58:37.305Z,73.79
2023-03-03T09:01:05.765Z,73.21
2023-03-03T09:03:33.811Z,74.55
2023-03-03T09:06:02.606Z,71.44
2023-03-03T09:08:30.814Z,74.26
2023-03-03T09:10:59.446Z,71.02
2023-03-03T09:13:29.859Z,70.46
2023-03-03T09:16:00.162Z,69.71
2023-03-03T09:18:36.033Z,70.36
2023-03-03T09:21:24.277Z,71.27
2023-03-03T09:24:00.402Z,67.57
2023-03-03T09:26:46.251Z,68.75
2023-03-03T09:29:14.570Z,69.34
2023-03-03T09:31:51.565Z,69.74
2023-03-03T09:34:28.184Z,70.72
2023-03-03T09:36:56.666Z,68.18
2023-03-03T09:39:27.068Z,69.68
2023-03-03T09:42:07.280Z,70.53
2023-03-03T09:44:53.705Z,68.49
2023-03-03T09:47:54.285Z,64.88
2023-03-03T09:50:26.909Z,67.41
2023-03-03T09:53:08.421Z,66.92
2023-03-03T09:55:58.093Z,64.65
2023-03-03T09:58:56.819Z,65.82
2023-03-03T10:01:58.871Z,62.82
2023-03-03T10:05:15.995Z,60.12
2023-03-03T10:08:09.037Z,52.08
2023-03-03T10:10:42.389Z,46.54
2023-03-03T10:13:34.514Z,45.95
2023-03-03T10:16:20.331Z,46.50
2023-03-03T10:19:15.702Z,44.87
2023-03-03T10:21:52.206Z,45.75
2023-03-03T10:24:44.475Z,44.63
2023-03-03T10:27:50.432Z,39.79
2023-03-03T10:30:54.787Z,38.68
2023-03-03T10:33:53.565Z,37.35
2023-03-03T10:36:46.392Z,39.97
2023-03-03T10:39:41.371Z,37.54
2023-03-03T10:42:47.815Z,38.94
2023-03-03T10:45:23.399Z,38.14
2023-03-03T10:48:04.755Z,39.66
2023-03-03T10:51:13.421Z,38.69
2023-03-03T10:53:58.623Z,35.73
2023-03-03T10:56:53.765Z,37.44
2023-03-03T11:00:01.329Z,35.73
2023-03-03T11:02:53.785Z,37.12
2023-03-03T11:05:29.322Z,32.86
2023-03-03T11:08:16.453Z,34.99
2023-03-03T11:10:54.476Z,36.16
2023-03-03T11:13:42.724Z,33.26
2023-03-03T11:16:27.388Z,35.02
2023-03-03T11:19:11.638Z,35.33
2023-03-03T11:22:12.414Z,39.47
2023-03-03T11:24:56.124Z,40.73
2023-03-03T11:27:55.389Z,40.67
2023-03-03T11:30:40.150Z,42.52
2023-03-03T11:33:42.465Z,43.48
2023-03-03T11:36:22.444Z,42.56
2023-03-03T11:39:00.513Z,37.90
2023-03-03T11:41:43.982Z,36.66
2023-03-03T11:44:18.410Z,39.05
2023-03-03T11:47:04.815Z,38.71
2023-03-03T11:50:06.151Z,38.24
2023-03-03T11:52:37.290Z,35.30
2023-03-03T11:55:23.655Z,39.39
2023-03-03T11:58:20.716Z,41.86
2023-03-03T12:01:04.065Z,39.63
2023-03-03T12:03:40.124Z,42.42
2023-03-03T12:06:30.869Z,46.24
2023-03-03T12:09:08.761Z,45.43
2023-03-03T12:11:56.487Z,44.33
2023-03-03T12:14:55.001Z,46.05
2023-03-03T12:17:37.741Z,45.56
2023-03-03T12:20:24.701Z,47.41
2023-03-03T12:23:13.521Z,46.86
2023-03-03T12:26:06.385Z,46.15
2023-03-03T12:29:16.316Z,46.28
2023-03-03T12:31:47.894Z,45.34
2023-03-03T12:34:36.544Z,45.29
2023-03-03T12:37:26.098Z,44.81
2023-03-03T12:40:04.529Z,44.74
2023-03-03T12:42:59.000Z,45.23
2023-03-03T12:45:50.689Z,45.03
2023-03-03T12:48:47.538Z,44.43
2023-03-03T12:51:27.661Z,45.66
2023-03-03T12:54:21.678Z,44.00
2023-03-03T12:56:59.260Z,44.86
2023-03-03T12:59:37.009Z,45.85
2023-03-03T13:02:30.421Z,45.77
2023-03-03T13:05:56.513Z,43.05
2023-03-03T13:08:55.213Z,43.26
2023-03-03T13:11:36.308Z,42.99
2023-03-03T13:14:31.485Z,43.62
2023-03-03T13:17:24.612Z,45.16
2023-03-03T13:20:02.940Z,45.21
2023-03-03T13:22:39.115Z,46.02
2023-03-03T13:25:07.316Z,46.50
2023-03-03T13:27:41.223Z,47.43
2023-03-03T13:30:17.549Z,48.65
2023-03-03T13:33:04.526Z,48.23
2023-03-03T13:35:41.633Z,49.44
2023-03-03T13:38:21.367Z,47.78
2023-03-03T13:40:52.245Z,49.65
2023-03-03T13:43:30.834Z,47.68
2023-03-03T13:46:36.568Z,46.63
2023-03-03T13:49:26.600Z,47.05
2023-03-03T13:51:57.554Z,46.87
2023-03-03T13:54:52.862Z,46.26
2023-03-03T13:57:30.016Z,45.13
2023-03-03T14:00:13.973Z,44.70
2023-03-03T14:02:42.747Z,44.20
2023-03-03T14:05:29.577Z,46.05
2023-03-03T14:07:59.668Z,42.63
2023-03-03T14:10:59.675Z,44.26
2023-03-03T14:13:35.538Z,44.81
2023-03-03T14:16:26.616Z,44.42
2023-03-03T14:19:06.745Z,43.39
2023-03-03T14:21:41.578Z,44.30
2023-03-03T14:24:19.629Z,44.83
2023-03-03T14:26:55.561Z,44.56
2023-03-03T14:29:27.318Z,44.73
2023-03-03T14:31:56.849Z,45.98
2023-03-03T14:34:43.569Z,46.11
2023-03-03T14:37:29.407Z,44.61
2023-03-03T14:40:10.165Z,43.03
2023-03-03T14:42:49.799Z,43.98
2023-03-03T14:45:32.595Z,42.88
2023-03-03T14:48:17.519Z,43.77
2023-03-03T14:50:55.140Z,44.76
2023-03-03T14:53:33.152Z,44.57
2023-03-03T14:56:26.281Z,46.64
2023-03-03T14:59:18.702Z,46.58
2023-03-03T15:01:51.600Z,46.65
2023-03-03T15:04:28.156Z,45.55
2023-03-03T15:06:58.453Z,46.60
2023-03-03T15:09:45.780Z,47.13
2023-03-03T15:12:26.685Z,47.46
2023-03-03T15:15:10.854Z,48.39
2023-03-03T15:17:42.361Z,47.96
2023-03-03T15:20:21.656Z,48.47
2023-03-03T15:22:53.658Z,46.70
2023-03-03T15:25:49.131Z,45.95
2023-03-03T15:28:37.107Z,46.37
2023-03-03T15:31:39.197Z,47.23
2023-03-03T15:34:34.947Z,46.67
2023-03-03T15:37:15.429Z,45.34
2023-03-03T15:40:01.047Z,46.45
2023-03-03T15:42:48.646Z,46.14
2023-03-03T15:45:33.944Z,46.03
2023-03-03T15:48:20.696Z,45.76
2023-03-03T15:51:01.251Z,48.43
2023-03-03T15:53:42.933Z,46.23
2023-03-03T15:56:11.995Z,46.03
2023-03-03T15:58:52.196Z,46.69
2023-03-03T16:01:28.017Z,47.38
2023-03-03T16:04:00.300Z,47.44
2023-03-03T16:06:38.432Z,47.29
2023-03-03T16:09:32.192Z,46.64
2023-03-03T16:12:07.852Z,46.99
2023-03-03T16:14:36.258Z,47.28
2023-03-03T16:17:28.984Z,46.86
2023-03-03T16:20:10.527Z,46.68
2023-03-03T16:22:50.067Z,47.47
2023-03-03T16:25:32.256Z,47.06
2023-03-03T16:28:14.545Z,48.56
2023-03-03T16:30:54.972Z,48.38
2023-03-03T16:33:31.788Z,47.00
2023-03-03T16:36:09.005Z,48.14
2023-03-03T16:39:04.321Z,48.11
2023-03-03T16:41:41.908Z,49.33
2023-03-03T16:44:25.105Z,49.17
2023-03-03T16:46:54.209Z,49.16
2023-03-03T16:49:39.738Z,50.06
2023-03-03T16:52:12.749Z,50.52
2023-03-03T16:54:59.662Z,52.30
2023-03-03T16:57:48.249Z,53.63
2023-03-03T17:00:24.630Z,52.74
2023-03-03T17:03:10.196Z,53.73
2023-03-03T17:05:47.235Z,52.89
2023-03-03T17:08:33.818Z,54.44
2023-03-03T17:11:06.549Z,52.69
2023-03-03T17:14:16.280Z,51.47
2023-03-03T17:17:22.798Z,51.63
2023-03-03T17:20:04.639Z,52.47
2023-03-03T17:22:53.347Z,52.25
2023-03-03T17:25:23.938Z,51.72
2023-03-03T17:28:10.908Z,53.59
2023-03-03T17:30:59.680Z,54.22
2023-03-03T17:33:30.519Z,54.05
2023-03-03T17:36:04.761Z,55.87
2023-03-03T17:39:02.222Z,56.49
2023-03-03T17:42:09.451Z,57.14
2023-03-03T17:45:06.775Z,58.00
2023-03-03T17:47:56.626Z,60.29
2023-03-03T17:50:36.334Z,59.54
2023-03-03T17:53:15.781Z,59.85
2023-03-03T17:55:56.057Z,58.43
2023-03-03T17:59:12.615Z,57.76
2023-03-03T18:02:18.709Z,57.03
2023-03-03T18:05:05.649Z,55.26
2023-03-03T18:08:01.583Z,54.29
2023-03-03T18:11:06.745Z,53.31
2023-03-03T18:13:55.060Z,53.45
2023-03-03T18:16:49.560Z,54.43
2023-03-03T18:19:49.296Z,53.20
2023-03-03T18:22:22.388Z,52.71
2023-03-03T18:24:50.342Z,52.03
2023-03-03T18:27:24.745Z,52.23
2023-03-03T18:30:11.185Z,51.09
2023-03-03T18:32:48.585Z,52.08
2023-03-03T18:35:25.947Z,51.38
2023-03-03T18:37:55.567Z,51.13
2023-03-03T18:40:33.764Z,53.14
2023-03-03T18:43:40.525Z,52.10
2023-03-03T18:46:31.695Z,52.48
2023-03-03T18:49:08.825Z,51.89
2023-03-03T18:51:39.816Z,51.50
2023-03-03T18:54:26.559Z,51.87
2023-03-03T18:56:57.210Z,51.52
2023-03-03T18:59:31.698Z,51.35
2023-03-03T19:02:18.473Z,52.53
2023-03-03T19:05:12.814Z,51.23
2023-03-03T19:07:40.751Z,50.12
2023-03-03T19:10:21.784Z,51.38
2023-03-03T19:12:53.684Z,50.57
2023-03-03T19:15:30.305Z,51.55
2023-03-03T19:18:15.456Z,49.71
2023-03-03T19:20:50.566Z,49.75
2023-03-03T19:23:25.407Z,50.17
2023-03-03T19:26:24.924Z,50.20
2023-03-03T19:28:59.787Z,50.56
2023-03-03T19:31:47.777Z,50.93
2023-03-03T19:34:42.135Z,51.88
2023-03-03T19:37:28.925Z,52.23
2023-03-03T19:40:28.105Z,51.72
2023-03-03T19:43:23.957Z,51.27
2023-03-03T19:46:23.856Z,51.56
2023-03-03T19:49:07.878Z,51.77
2023-03-03T19:51:45.152Z,52.42
2023-03-03T19:54:39.928Z,52.11
2023-03-03T19:57:17.804Z,52.34
2023-03-03T19:59:57.742Z,53.52
2023-03-03T20:02:41.940Z,52.93
2023-03-03T20:05:41.435Z,54.55
2023-03-03T20:08:11.321Z,53.37
2023-03-03T20:10:42.663Z,54.68
2023-03-03T20:13:19.830Z,54.32
2023-03-03T20:15:52.840Z,55.04
2023-03-03T20:18:25.203Z,53.76
2023-03-03T20:20:56.812Z,56.44
2023-03-03T20:23:42.174Z,55.71
2023-03-03T20:26:42.497Z,55.06
2023-03-03T20:29:27.421Z,55.04
2023-03-03T20:32:11.836Z,56.01
2023-03-03T20:35:02.629Z,56.80
2023-03-03T20:37:44.775Z,55.68
2023-03-03T20:40:40.407Z,57.01
2023-03-03T20:43:27.585Z,57.55
2023-03-03T20:46:33.360Z,59.15
2023-03-03T20:49:30.330Z,61.34
2023-03-03T20:52:33.730Z,58.04
2023-03-03T20:55:10.817Z,59.48
2023-03-03T20:57:56.591Z,62.81
2023-03-03T21:00:27.961Z,63.37
2023-03-03T21:03:31.392Z,62.58
2023-03-03T21:06:02.842Z,60.22
2023-03-03T21:08:55.042Z,58.39
2023-03-03T21:11:32.628Z,59.81
2023-03-03T21:14:18.204Z,59.55
2023-03-03T21:16:47.189Z,62.63
2023-03-03T21:19:26.164Z,62.10
2023-03-03T21:21:54.907Z,60.90
2023-03-03T21:24:23.190Z,61.84
2023-03-03T21:26:59.327Z,61.48
2023-03-03T21:29:31.428Z,63.99
2023-03-03T21:32:01.569Z,62.87
2023-03-03T21:34:42.378Z,64.95
2023-03-03T21:37:15.688Z,64.48
2023-03-03T21:39:44.737Z,65.44
2023-03-03T21:42:19.493Z,65.31
2023-03-03T21:44:50.055Z,63.94
2023-03-03T21:47:23.346Z,64.79
2023-03-03T21:49:52.524Z,63.42
2023-03-03T21:52:22.484Z,63.93
2023-03-03T21:54:52.075Z,65.67
2023-03-03T21:57:20.496Z,65.76
2023-03-03T21:59:48.429Z,65.02
2023-03-03T22:02:16.627Z,64.20
2023-03-03T22:04:45.015Z,63.85
2023-03-03T22:07:13.199Z,65.48
2023-03-03T22:09:41.067Z,63.98
2023-03-03T22:12:09.435Z,64.90
2023-03-03T22:14:37.377Z,63.54
2023-03-03T22:17:05.567Z,64.50
2023-03-03T22:19:34.506Z,63.23
2023-03-03T22:22:02.456Z,63.80
2023-03-03T22:24:30.722Z,62.97
2023-03-03T22:26:59.168Z,63.52
2023-03-03T22:29:27.157Z,63.85
2023-03-03T22:31:55.170Z,61.77
2023-03-03T22:34:23.634Z,61.95
2023-03-03T22:36:51.547Z,60.83
2023-03-03T22:39:19.512Z,61.18
2023-03-03T22:41:47.859Z,61.67
2023-03-03T22:44:15.811Z,61.09
2023-03-03T22:46:43.746Z,60.91
2023-03-03T22:49:12.100Z,60.37
2023-03-03T22:51:40.052Z,62.18
2023-03-03T22:54:08.010Z,60.57
2023-03-03T22:56:36.384Z,60.04
2023-03-03T22:59:04.468Z,58.35
2023-03-03T23:01:32.485Z,59.15
2023-03-03T23:04:00.871Z,58.36
2023-03-03T23:06:28.842Z,59.50
2023-03-03T23:08:56.760Z,61.06
2023-03-03T23:11:25.546Z,61.87
2023-03-03T23:13:53.797Z,60.67
2023-03-03T23:16:21.769Z,60.20
2023-03-03T23:18:50.216Z,60.32
2023-03-03T23:21:18.229Z,61.56
2023-03-03T23:23:46.324Z,63.88
2023-03-03T23:26:14.620Z,64.03
2023-03-03T23:28:42.551Z,61.34
2023-03-03T23:31:10.668Z,60.05
2023-03-03T23:33:38.997Z,60.16
2023-03-03T23:36:07.482Z,58.65
2023-03-03T23:38:35.547Z,59.75
2023-03-03T23:41:03.941Z,59.90
2023-03-03T23:43:32.017Z,58.81
2023-03-03T23:45:59.958Z,58.05
2023-03-03T23:48:28.288Z,57.58
2023-03-03T23:50:56.237Z,57.58
2023-03-03T23:53:24.164Z,57.38
2023-03-03T23:55:52.546Z,57.69
2023-03-03T23:58:20.505Z,58.64
